Time;durP1;ratioP1;P1;durP2;ratioP2;P2;SDS_P1;SDS_P2;PMS_P1;PMS_P2;Temp;Humidity;BMP_temperature;BMP_pressure;BME280_temperature;BME280_humidity;BME280_pressure;Samples;Min_cycle;Max_cycle;Signal;HPM_P1;HPM_P2
2023/02/18 00:01:57;;;;;;;78.90;39.30;;;;;;;1.41;100.00;99034.86;109322;1271;25017;-69
2023/02/18 00:04:25;;;;;;;80.20;39.80;;;;;;;1.41;100.00;99030.28;107445;1271;25367;-68
2023/02/18 00:06:54;;;;;;;84.70;40.80;;;;;;;1.40;100.00;99027.81;107356;1275;22533;-68
2023/02/18 00:09:22;;;;;;;82.70;39.40;;;;;;;1.37;100.00;99020.16;107465;1273;25339;-69
2023/02/18 00:11:51;;;;;;;78.90;38.90;;;;;;;1.36;100.00;99016.83;107398;1272;22997;-69
2023/02/18 00:14:20;;;;;;;82.20;39.10;;;;;;;1.41;100.00;99008.36;107526;1269;22576;-68
2023/02/18 00:16:48;;;;;;;76.40;39.10;;;;;;;1.43;100.00;99000.05;107523;1271;22577;-69
2023/02/18 00:19:18;;;;;;;81.00;38.00;;;;;;;1.44;100.00;98993.89;107545;1276;22646;-69
2023/02/18 00:21:47;;;;;;;85.10;39.90;;;;;;;1.46;100.00;98985.15;110264;1272;22325;-69
2023/02/18 00:24:15;;;;;;;90.80;42.50;;;;;;;1.49;100.00;98977.87;110273;1276;22962;-69
2023/02/18 00:26:44;;;;;;;85.80;41.70;;;;;;;1.46;100.00;98968.09;110173;1274;22641;-69
2023/02/18 00:29:12;;;;;;;79.60;39.90;;;;;;;1.45;100.00;98954.22;107477;1271;26511;-69
2023/02/18 00:31:44;;;;;;;84.30;41.60;;;;;;;1.48;100.00;98942.64;108131;1273;23276;-69
2023/02/18 00:34:13;;;;;;;86.40;42.30;;;;;;;1.52;100.00;98937.11;110224;1270;22879;-69
2023/02/18 00:36:42;;;;;;;78.70;40.80;;;;;;;1.55;100.00;98927.41;110259;1276;22948;-69
2023/02/18 00:39:11;;;;;;;81.10;40.30;;;;;;;1.59;100.00;98921.23;110276;1274;22257;-69
2023/02/18 00:41:41;;;;;;;78.20;40.80;;;;;;;1.61;100.00;98917.46;108401;1270;22550;-68
2023/02/18 00:44:10;;;;;;;85.70;42.00;;;;;;;1.62;100.00;98903.76;108277;1270;24232;-69
2023/02/18 00:46:38;;;;;;;84.00;41.50;;;;;;;1.59;100.00;98897.95;107386;1275;22749;-69
2023/02/18 00:49:08;;;;;;;85.50;40.90;;;;;;;1.58;100.00;98896.80;107345;1276;26166;-69
2023/02/18 00:51:36;;;;;;;82.20;41.90;;;;;;;1.61;100.00;98888.16;107411;1273;26521;-69
2023/02/18 00:54:05;;;;;;;77.70;39.90;;;;;;;1.62;100.00;98879.67;110035;1272;23113;-69
2023/02/18 00:56:33;;;;;;;85.40;40.40;;;;;;;1.64;100.00;98873.45;110247;1274;22486;-69
2023/02/18 00:59:02;;;;;;;79.90;40.20;;;;;;;1.66;100.00;98858.40;110231;1270;22907;-69
2023/02/18 01:01:30;;;;;;;80.20;40.90;;;;;;;1.66;100.00;98854.05;107775;1271;23912;-69
2023/02/18 01:03:58;;;;;;;81.90;40.70;;;;;;;1.64;100.00;98848.59;107471;1270;24038;-69
2023/02/18 01:06:27;;;;;;;82.00;40.90;;;;;;;1.62;100.00;98839.65;107345;1271;26630;-69
2023/02/18 01:08:55;;;;;;;83.90;41.40;;;;;;;1.64;100.00;98834.64;107198;1269;22557;-70
2023/02/18 01:11:24;;;;;;;83.20;40.90;;;;;;;1.66;100.00;98821.32;107427;1276;24200;-69
2023/02/18 01:13:52;;;;;;;76.80;40.60;;;;;;;1.67;100.00;98809.75;107399;1274;26206;-68
2023/02/18 01:16:22;;;;;;;79.80;41.20;;;;;;;1.68;100.00;98805.42;107520;1275;23483;-69
2023/02/18 01:18:50;;;;;;;79.00;41.00;;;;;;;1.68;100.00;98793.52;107182;1276;343987;-69
2023/02/18 01:23:03;;;;;;;76.10;41.20;;;;;;;1.68;100.00;98776.23;104322;1305;545121;-67
2023/02/18 01:25:31;;;;;;;77.40;40.30;;;;;;;1.63;100.00;98767.27;106471;1283;24266;-68
2023/02/18 01:28:05;;;;;;;75.00;39.70;;;;;;;1.66;100.00;98766.11;106626;1283;27445;-68
2023/02/18 01:30:33;;;;;;;77.70;40.00;;;;;;;1.66;100.00;98758.29;106706;1282;23449;-68
2023/02/18 01:33:01;;;;;;;71.30;39.30;;;;;;;1.67;100.00;98757.80;106471;1285;23041;-68
2023/02/18 01:35:31;;;;;;;76.20;40.30;;;;;;;1.69;100.00;98755.06;109276;1282;202766;-68
2023/02/18 01:37:59;;;;;;;77.40;39.90;;;;;;;1.71;100.00;98742.42;108377;1280;23769;-67
2023/02/18 01:40:28;;;;;;;69.90;38.40;;;;;;;1.71;100.00;98736.76;106905;1280;23890;-67
2023/02/18 01:42:56;;;;;;;72.10;39.60;;;;;;;1.71;100.00;98730.09;106890;1282;22645;-67
2023/02/18 01:45:36;;;;;;;71.00;38.50;;;;;;;1.71;100.00;98722.73;106838;1280;22666;-68
2023/02/18 01:48:11;;;;;;;74.30;39.00;;;;;;;1.67;100.00;98718.64;106654;1285;22564;-67
2023/02/18 01:50:47;;;;;;;66.90;37.20;;;;;;;1.62;100.00;98709.52;106911;1280;25307;-67
2023/02/18 01:53:19;;;;;;;68.60;36.20;;;;;;;1.62;100.00;98703.59;106693;1285;25615;-67
2023/02/18 01:55:48;;;;;;;67.30;37.30;;;;;;;1.61;100.00;98696.59;106849;1280;23919;-67
2023/02/18 01:58:16;;;;;;;61.60;34.70;;;;;;;1.60;100.00;98685.88;106591;1280;25411;-67
2023/02/18 02:00:47;;;;;;;62.90;34.90;;;;;;;1.59;100.00;98683.73;106559;1285;23505;-67
2023/02/18 02:03:15;;;;;;;62.00;35.60;;;;;;;1.53;100.00;98671.95;106793;1280;22532;-68
2023/02/18 02:05:45;;;;;;;55.30;32.60;;;;;;;1.49;100.00;98666.16;107184;1280;23006;-67
2023/02/18 02:08:16;;;;;;;57.20;33.00;;;;;;;1.47;100.00;98662.16;107069;1280;24263;-68
2023/02/18 02:11:04;;;;;;;57.80;32.40;;;;;;;1.47;100.00;98657.48;106496;1285;23327;-68
2023/02/18 02:13:56;;;;;;;55.50;32.50;;;;;;;1.45;100.00;98648.22;106601;1285;26342;-68
2023/02/18 02:16:33;;;;;;;56.20;32.70;;;;;;;1.43;100.00;98634.06;106724;1286;27618;-68
2023/02/18 02:19:13;;;;;;;53.30;31.50;;;;;;;1.40;100.00;98624.91;106777;1287;26537;-67
2023/02/18 02:21:56;;;;;;;53.70;31.60;;;;;;;1.33;100.00;98619.08;110060;1273;22784;-68
2023/02/18 02:24:51;;;;;;;54.10;31.10;;;;;;;1.33;100.00;98606.16;109919;1275;22363;-68
2023/02/18 02:27:55;;;;;;;48.90;29.30;;;;;;;1.34;100.00;98602.00;109880;1272;22350;-68
2023/02/18 02:30:29;;;;;;;50.60;30.10;;;;;;;1.35;100.00;98602.23;109738;1272;22223;-68
2023/02/18 02:33:24;;;;;;;50.20;30.70;;;;;;;1.36;100.00;98599.86;109978;1276;22407;-68
2023/02/18 02:36:08;;;;;;;49.50;30.60;;;;;;;1.37;100.00;98589.66;109832;1275;23053;-67
2023/02/18 02:38:48;;;;;;;49.30;29.90;;;;;;;1.36;100.00;98588.89;107378;1273;22549;-67
2023/02/18 02:41:47;;;;;;;49.40;30.40;;;;;;;1.29;100.00;98577.83;107314;1275;24441;-68
2023/02/18 02:44:21;;;;;;;51.30;30.50;;;;;;;1.30;100.00;98572.54;107387;1273;25363;-68
2023/02/18 02:46:54;;;;;;;47.50;28.20;;;;;;;1.32;100.00;98567.42;108225;1274;24474;-68
2023/02/18 02:49:43;;;;;;;50.20;29.80;;;;;;;1.34;100.00;98555.61;107796;1276;26014;-68
2023/02/18 02:52:36;;;;;;;47.70;29.80;;;;;;;1.33;100.00;98547.13;107343;1273;23258;-68
2023/02/18 02:55:08;;;;;;;46.40;27.60;;;;;;;1.33;100.00;98547.17;107291;1279;24125;-67
2023/02/18 02:57:46;;;;;;;52.50;31.50;;;;;;;1.32;100.00;98539.15;107447;1275;25344;-68
2023/02/18 03:02:54;;;;;;;50.00;29.20;;;;;;;1.33;100.00;98534.89;104564;1309;545808;-72
2023/02/18 03:05:43;;;;;;;55.20;31.20;;;;;;;1.36;100.00;98526.84;109116;1288;22425;-73
2023/02/18 03:08:42;;;;;;;54.50;31.30;;;;;;;1.39;100.00;98520.88;109359;1283;23245;-72
2023/02/18 03:11:10;;;;;;;53.40;30.20;;;;;;;1.41;100.00;98515.95;109456;1282;23349;-71
2023/02/18 03:14:21;;;;;;;51.50;30.80;;;;;;;1.42;100.00;98513.27;109271;1283;22523;-72
2023/02/18 03:16:59;;;;;;;50.50;29.70;;;;;;;1.46;100.00;98508.36;109419;1279;210859;-73
2023/02/18 03:19:33;;;;;;;52.90;31.40;;;;;;;1.49;100.00;98505.13;109496;1279;22888;-73
2023/02/18 03:22:00;;;;;;;51.80;30.40;;;;;;;1.54;100.00;98496.93;108954;1284;22993;-72
2023/02/18 03:24:38;;;;;;;55.10;31.50;;;;;;;1.53;100.00;98491.98;107251;1280;24521;-71
2023/02/18 03:27:18;;;;;;;50.10;30.60;;;;;;;1.56;100.00;98490.85;107223;1286;25396;-71
2023/02/18 03:29:47;;;;;;;53.90;31.00;;;;;;;1.61;100.00;98487.30;107425;1279;22545;-72
2023/02/18 03:32:16;;;;;;;48.60;28.20;;;;;;;1.67;100.00;98479.60;107485;1282;25392;-71
2023/02/18 03:34:46;;;;;;;49.90;29.10;;;;;;;1.71;100.00;98473.23;106481;1286;25229;-71
2023/02/18 03:37:19;;;;;;;47.00;29.80;;;;;;;1.75;100.00;98472.11;106624;1279;25288;-70
2023/02/18 03:39:50;;;;;;;51.20;30.20;;;;;;;1.78;100.00;98462.60;106729;1279;26112;-72
2023/02/18 03:42:17;;;;;;;48.70;28.60;;;;;;;1.79;100.00;98461.24;106623;1282;23827;-71
2023/02/18 03:44:44;;;;;;;47.80;27.90;;;;;;;1.83;100.00;98453.25;106914;1285;25358;-70
2023/02/18 03:47:11;;;;;;;45.60;27.80;;;;;;;1.90;100.00;98441.70;106821;1284;24219;-71
2023/02/18 03:49:39;;;;;;;43.50;26.50;;;;;;;1.96;100.00;98439.63;106941;1280;22532;-71
2023/02/18 03:52:06;;;;;;;42.80;26.10;;;;;;;2.00;100.00;98432.12;106967;1279;25415;-71
2023/02/18 03:54:34;;;;;;;40.10;26.10;;;;;;;2.05;100.00;98427.19;106845;1279;25405;-71
2023/02/18 03:57:01;;;;;;;39.30;25.30;;;;;;;2.06;100.00;98421.98;106954;1276;23746;-71
2023/02/18 03:59:28;;;;;;;37.50;24.40;;;;;;;2.10;100.00;98416.79;107202;1276;25400;-71
2023/02/18 04:01:55;;;;;;;38.60;24.60;;;;;;;2.15;100.00;98411.15;107160;1276;25216;-71
2023/02/18 04:04:23;;;;;;;36.20;23.20;;;;;;;2.19;100.00;98403.63;107142;1276;26160;-71
2023/02/18 04:06:50;;;;;;;35.20;22.40;;;;;;;2.22;100.00;98393.90;107091;1276;24221;-71
2023/02/18 04:09:19;;;;;;;37.70;23.20;;;;;;;2.25;100.00;98383.67;107113;1276;25308;-71
2023/02/18 04:11:46;;;;;;;37.60;23.80;;;;;;;2.24;100.00;98377.66;107096;1276;23366;-71
2023/02/18 04:14:12;;;;;;;;;;;;;;;2.28;100.00;98368.63;107054;1276;22526;-71
2023/02/18 04:16:42;;;;;;;36.20;21.80;;;;;;;2.29;100.00;98365.09;109746;1276;23380;-72
2023/02/18 04:19:09;;;;;;;36.40;22.60;;;;;;;2.29;100.00;98362.30;109796;1276;23986;-72
2023/02/18 04:21:35;;;;;;;35.70;22.40;;;;;;;2.33;100.00;98356.92;109749;1279;22517;-76
2023/02/18 04:24:02;;;;;;;34.50;21.80;;;;;;;2.33;100.00;98351.13;109794;1282;22384;-75
2023/02/18 04:26:29;;;;;;;35.60;21.90;;;;;;;2.37;100.00;98341.70;109752;1277;22476;-75
2023/02/18 04:28:56;;;;;;;35.20;21.50;;;;;;;2.40;100.00;98342.27;109768;1276;22920;-72
2023/02/18 04:31:23;;;;;;;34.30;20.80;;;;;;;2.43;100.00;98342.52;109803;1276;22350;-72
2023/02/18 04:33:51;;;;;;;32.70;21.80;;;;;;;2.45;100.00;98333.90;109781;1277;22432;-71
2023/02/18 04:36:17;;;;;;;;;;;;;;;2.49;100.00;98332.43;109785;1276;22506;-70
2023/02/18 04:38:45;;;;;;;34.70;21.70;;;;;;;2.51;100.00;98329.39;109775;1276;22347;-72
2023/02/18 04:41:12;;;;;;;32.80;20.90;;;;;;;2.50;100.00;98328.57;109753;1276;22294;-71
2023/02/18 04:43:38;;;;;;;32.40;20.90;;;;;;;2.53;100.00;98320.23;110348;1276;22349;-72
2023/02/18 04:46:06;;;;;;;32.90;19.80;;;;;;;2.55;100.00;98321.04;110330;1270;23223;-72
2023/02/18 04:48:35;;;;;;;31.30;20.00;;;;;;;2.62;100.00;98316.02;110363;1268;22187;-72
2023/02/18 04:51:02;;;;;;;;;;;;;;;2.68;100.00;98313.92;110329;1269;22505;-71
2023/02/18 04:53:29;;;;;;;30.40;19.30;;;;;;;2.69;100.00;98311.55;110346;1260;22357;-72
2023/02/18 04:55:56;;;;;;;32.00;19.70;;;;;;;2.65;100.00;98311.59;110322;1269;22402;-73
2023/02/18 04:58:23;;;;;;;30.10;19.70;;;;;;;2.72;100.00;98305.73;110354;1272;22279;-72
2023/02/18 05:00:50;;;;;;;27.40;18.00;;;;;;;2.80;100.00;98297.67;110301;1269;22427;-72
2023/02/18 05:03:16;;;;;;;;;;;;;;;2.83;100.00;98285.95;110303;1270;22420;-73
2023/02/18 05:05:44;;;;;;;26.50;17.20;;;;;;;2.82;100.00;98268.66;110336;1270;22413;-73
2023/02/18 05:08:11;;;;;;;25.80;17.50;;;;;;;2.83;100.00;98258.36;110380;1270;22407;-71
2023/02/18 05:10:40;;;;;;;25.40;16.70;;;;;;;2.90;100.00;98272.87;110269;1269;22349;-71
2023/02/18 05:13:07;;;;;;;24.90;16.40;;;;;;;2.98;100.00;98273.69;110315;1269;22361;-71
2023/02/18 05:15:34;;;;;;;26.50;16.20;;;;;;;3.01;100.00;98276.29;110304;1270;22417;-71
2023/02/18 05:18:02;;;;;;;22.80;15.10;;;;;;;3.07;100.00;98276.17;110244;1270;22263;-71
2023/02/18 05:20:29;;;;;;;21.60;14.80;;;;;;;3.18;100.00;98275.16;110293;1275;22250;-71
2023/02/18 05:22:57;;;;;;;20.20;14.20;;;;;;;3.23;100.00;98278.11;109453;1271;22524;-71
2023/02/18 05:25:24;;;;;;;21.20;13.60;;;;;;;3.32;100.00;98277.51;107656;1269;25389;-70
2023/02/18 05:27:54;;;;;;;21.30;14.10;;;;;;;3.38;100.00;98270.12;107661;1270;25348;-70
2023/02/18 05:30:22;;;;;;;19.40;13.10;;;;;;;3.45;100.00;98264.98;107704;1270;26554;-71
2023/02/18 05:32:48;;;;;;;19.30;13.20;;;;;;;3.47;100.00;98264.42;107502;1270;22690;-70
2023/02/18 05:35:15;;;;;;;18.50;12.80;;;;;;;3.54;100.00;98269.45;107551;1273;23487;-70
2023/02/18 05:37:42;;;;;;;16.70;11.70;;;;;;;3.61;100.00;98264.21;107576;1273;25350;-70
2023/02/18 05:40:10;;;;;;;17.20;12.00;;;;;;;3.67;100.00;98264.23;107533;1269;23459;-70
2023/02/18 05:42:37;;;;;;;16.20;12.00;;;;;;;3.73;100.00;98263.94;107505;1270;28007;-70
2023/02/18 05:45:04;;;;;;;16.40;11.30;;;;;;;3.82;100.00;98261.92;107686;1270;22715;-70
2023/02/18 05:47:32;;;;;;;16.20;11.40;;;;;;;3.90;100.00;98253.45;107594;1254;22540;-70
2023/02/18 05:50:00;;;;;;;17.40;11.70;;;;;;;3.94;100.00;98256.37;107641;1270;25315;-71
2023/02/18 05:52:27;;;;;;;15.50;10.70;;;;;;;3.94;100.00;98253.04;107653;1264;22525;-71
2023/02/18 05:54:54;;;;;;;15.60;10.90;;;;;;;4.01;100.00;98247.46;107625;1272;22832;-71
2023/02/18 05:57:21;;;;;;;14.80;10.10;;;;;;;4.08;100.00;98247.58;107598;1269;22648;-71
2023/02/18 05:59:48;;;;;;;17.30;11.30;;;;;;;4.11;100.00;98242.04;107588;1270;22705;-71
2023/02/18 06:02:15;;;;;;;13.80;9.90;;;;;;;4.12;100.00;98243.55;107622;1273;24232;-71
2023/02/18 06:04:42;;;;;;;14.40;9.80;;;;;;;4.17;100.00;98243.77;107689;1272;26138;-71
2023/02/18 06:07:09;;;;;;;14.40;10.20;;;;;;;4.22;100.00;98245.94;108477;1270;23164;-72
2023/02/18 06:09:36;;;;;;;13.60;9.50;;;;;;;4.26;100.00;98243.63;110316;1269;22211;-72
2023/02/18 06:12:04;;;;;;;13.90;8.80;;;;;;;4.28;100.00;98241.21;107551;1273;25507;-71
2023/02/18 06:14:32;;;;;;;11.30;8.60;;;;;;;4.36;100.00;98242.08;107423;1276;26853;-71
2023/02/18 06:16:59;;;;;;;12.30;8.30;;;;;;;4.42;100.00;98236.16;107476;1276;25545;-71
2023/02/18 06:19:26;;;;;;;12.40;8.40;;;;;;;4.43;100.00;98236.91;107518;1276;25425;-71
2023/02/18 06:21:55;;;;;;;13.80;8.70;;;;;;;4.42;100.00;98238.05;107553;1276;22527;-71
2023/02/18 06:24:21;;;;;;;10.70;7.80;;;;;;;4.48;100.00;98234.44;107610;1276;22727;-71
2023/02/18 06:26:52;;;;;;;9.10;7.10;;;;;;;4.56;100.00;98237.73;107591;1276;25318;-71
2023/02/18 06:29:19;;;;;;;11.10;8.00;;;;;;;4.59;100.00;98231.96;107440;1276;23001;-71
2023/02/18 06:31:46;;;;;;;10.80;7.30;;;;;;;4.60;100.00;98229.00;108119;1273;25330;-71
2023/02/18 06:34:18;;;;;;;10.50;7.00;;;;;;;4.68;100.00;98227.98;107589;1276;22533;-71
2023/02/18 06:36:45;;;;;;;11.40;7.70;;;;;;;4.77;100.00;98225.11;107523;1276;22661;-70
2023/02/18 06:39:11;;;;;;;9.50;6.50;;;;;;;4.85;100.00;98231.64;107448;1276;22631;-71
2023/02/18 06:41:39;;;;;;;8.30;6.40;;;;;;;5.01;100.00;98230.53;107531;1276;26477;-71
2023/02/18 06:44:06;;;;;;;9.00;7.10;;;;;;;5.17;100.00;98225.17;107530;1276;22523;-71
2023/02/18 06:46:34;;;;;;;9.90;6.80;;;;;;;5.28;100.00;98222.94;110393;1276;23071;-71
2023/02/18 06:49:01;;;;;;;9.20;6.30;;;;;;;5.50;100.00;98224.86;110451;1276;22283;-71
2023/02/18 06:51:29;;;;;;;9.60;7.00;;;;;;;5.70;100.00;98233.09;110407;1276;22225;-71
2023/02/18 06:53:55;;;;;;;9.90;6.60;;;;;;;5.84;100.00;98232.13;110323;1270;22499;-71
2023/02/18 06:56:22;;;;;;;10.40;7.20;;;;;;;5.91;100.00;98244.86;110407;1273;22366;-71
2023/02/18 06:58:49;;;;;;;10.50;7.60;;;;;;;5.98;100.00;98246.08;110417;1267;22501;-70
2023/02/18 07:01:16;;;;;;;12.50;9.00;;;;;;;6.01;100.00;98246.60;110440;1276;22196;-71
2023/02/18 07:03:43;;;;;;;11.30;9.10;;;;;;;5.96;100.00;98258.29;110425;1276;22219;-72
2023/02/18 07:06:15;;;;;;;11.90;8.80;;;;;;;5.87;100.00;98261.45;110375;1270;22281;-73
2023/02/18 07:08:42;;;;;;;11.30;7.80;;;;;;;5.84;100.00;98267.93;110415;1276;22402;-72
2023/02/18 07:11:09;;;;;;;10.50;7.50;;;;;;;5.82;100.00;98278.25;110398;1273;22285;-72
2023/02/18 07:13:36;;;;;;;9.50;5.80;;;;;;;5.82;100.00;98286.89;110350;1273;22406;-72
2023/02/18 07:16:03;;;;;;;7.20;3.70;;;;;;;5.80;100.00;98289.88;109998;1273;22577;-72
2023/02/18 07:18:32;;;;;;;5.60;3.10;;;;;;;5.69;100.00;98290.98;107424;1275;25236;-71
2023/02/18 07:20:59;;;;;;;6.90;3.60;;;;;;;5.57;100.00;98296.42;107467;1276;22719;-71
2023/02/18 07:23:29;;;;;;;6.60;3.70;;;;;;;5.47;100.00;98296.28;107599;1276;25200;-71
2023/02/18 07:26:07;;;;;;;5.70;2.50;;;;;;;5.38;100.00;98289.28;107512;1273;22563;-72
2023/02/18 07:28:34;;;;;;;6.60;3.40;;;;;;;5.32;100.00;98294.80;110382;1272;22425;-72
2023/02/18 07:31:01;;;;;;;6.90;3.30;;;;;;;5.24;100.00;98301.29;110408;1272;22301;-71
2023/02/18 07:33:28;;;;;;;5.90;2.60;;;;;;;5.21;100.00;98313.49;110403;1270;22295;-72
2023/02/18 07:35:56;;;;;;;3.60;1.80;;;;;;;5.20;100.00;98316.68;110381;1274;22393;-72
2023/02/18 07:38:23;;;;;;;4.00;1.80;;;;;;;5.19;100.00;98307.17;110368;1272;23065;-73
2023/02/18 07:40:50;;;;;;;4.30;1.50;;;;;;;5.15;100.00;98302.81;110398;1271;22812;-73
2023/02/18 07:43:17;;;;;;;5.10;1.30;;;;;;;5.12;100.00;98306.85;110445;1276;22396;-73
2023/02/18 07:45:44;;;;;;;5.40;1.50;;;;;;;5.06;100.00;98307.61;110442;1274;22421;-73
2023/02/18 07:48:11;;;;;;;3.00;1.00;;;;;;;5.04;100.00;98296.55;110417;1276;22375;-73
2023/02/18 07:50:39;;;;;;;4.40;1.30;;;;;;;5.05;100.00;98293.37;110411;1276;22219;-73
2023/02/18 07:53:06;;;;;;;4.70;0.90;;;;;;;5.07;100.00;98285.02;110443;1275;22167;-73
2023/02/18 07:55:54;;;;;;;4.70;1.30;;;;;;;5.10;100.00;98277.56;110355;1275;23219;-73
2023/02/18 07:58:26;;;;;;;4.70;1.40;;;;;;;5.12;100.00;98276.05;110382;1274;22961;-72
2023/02/18 08:00:53;;;;;;;3.90;1.20;;;;;;;5.12;100.00;98275.66;110404;1273;22774;-72
2023/02/18 08:03:22;;;;;;;6.20;1.40;;;;;;;5.22;100.00;98276.75;110382;1276;22374;-72
2023/02/18 08:05:50;;;;;;;4.30;1.40;;;;;;;5.34;100.00;98275.27;110389;1274;22484;-72
2023/02/18 08:08:20;;;;;;;5.90;1.60;;;;;;;5.44;100.00;98269.79;108846;1271;25268;-72
2023/02/18 08:10:49;;;;;;;5.50;1.60;;;;;;;5.49;100.00;98264.38;107418;1276;23313;-71
2023/02/18 08:13:18;;;;;;;3.90;1.30;;;;;;;5.52;100.00;98260.80;107506;1276;22922;-71
2023/02/18 08:15:45;;;;;;;4.20;1.70;;;;;;;5.61;100.00;98261.90;107657;1275;25336;-72
2023/02/18 08:18:15;;;;;;;3.60;1.30;;;;;;;5.69;100.00;98264.27;107586;1272;26609;-72
2023/02/18 08:20:42;;;;;;;6.70;2.00;;;;;;;5.73;100.00;98271.44;110392;1275;22284;-73
2023/02/18 08:23:09;;;;;;;6.30;2.50;;;;;;;5.76;100.00;98272.45;110408;1276;22415;-73
2023/02/18 08:25:36;;;;;;;8.40;2.80;;;;;;;5.88;100.00;98274.41;110400;1275;22918;-73
2023/02/18 08:28:03;;;;;;;7.20;3.00;;;;;;;5.97;100.00;98274.61;110390;1276;22950;-73
2023/02/18 08:30:30;;;;;;;7.70;3.40;;;;;;;6.00;100.00;98277.23;110484;1274;22222;-73
2023/02/18 08:32:57;;;;;;;6.50;3.10;;;;;;;6.07;100.00;98276.92;110389;1275;22285;-74
2023/02/18 08:35:24;;;;;;;9.50;4.00;;;;;;;6.16;100.00;98276.08;110372;1275;22435;-73
2023/02/18 08:37:51;;;;;;;7.90;3.20;;;;;;;6.29;100.00;98278.55;110382;1273;22486;-73
2023/02/18 08:40:20;;;;;;;6.40;3.10;;;;;;;6.35;100.00;98280.35;110328;1276;22233;-74
2023/02/18 08:42:47;;;;;;;5.70;2.50;;;;;;;6.39;100.00;98280.59;110323;1273;22248;-72
2023/02/18 08:45:14;;;;;;;10.70;2.80;;;;;;;6.47;100.00;98279.02;108763;1276;22552;-72
2023/02/18 08:47:40;;;;;;;6.50;2.50;;;;;;;6.54;100.00;98280.60;107617;1273;22662;-72
2023/02/18 08:50:27;;;;;;;6.90;3.20;;;;;;;6.51;100.00;98277.86;107465;1276;23188;-72
2023/02/18 08:52:55;;;;;;;6.70;2.60;;;;;;;6.46;100.00;98274.06;107460;1276;25363;-72
2023/02/18 08:55:23;;;;;;;6.50;2.60;;;;;;;6.48;100.00;98280.42;107539;1270;23466;-72
2023/02/18 08:57:51;;;;;;;6.50;3.20;;;;;;;6.51;100.00;98280.95;107710;1273;24028;-72
2023/02/18 09:00:18;;;;;;;7.10;3.00;;;;;;;6.49;100.00;98278.73;107499;1273;24245;-73
2023/02/18 09:02:46;;;;;;;5.40;2.30;;;;;;;6.46;100.00;98278.77;107464;1275;22551;-72
2023/02/18 09:05:13;;;;;;;7.70;2.60;;;;;;;6.49;100.00;98284.37;107628;1270;22567;-72
2023/02/18 09:07:40;;;;;;;7.20;2.70;;;;;;;6.50;100.00;98273.98;107696;1270;25274;-72
2023/02/18 09:10:07;;;;;;;7.30;2.20;;;;;;;6.50;100.00;98279.59;107604;1276;22546;-72
2023/02/18 09:12:34;;;;;;;5.90;2.10;;;;;;;6.55;100.00;98277.72;107432;1276;23301;-72
2023/02/18 09:15:03;;;;;;;7.90;2.20;;;;;;;6.61;100.00;98283.64;107759;1276;26656;-72
2023/02/18 09:17:30;;;;;;;6.00;1.80;;;;;;;6.61;100.00;98278.61;107934;1273;25479;-72
2023/02/18 09:19:57;;;;;;;6.90;2.20;;;;;;;6.62;100.00;98278.77;107697;1270;22517;-72
2023/02/18 09:22:24;;;;;;;8.10;2.00;;;;;;;6.68;100.00;98275.46;107614;1275;23252;-72
2023/02/18 09:24:51;;;;;;;6.30;1.90;;;;;;;6.70;100.00;98268.86;107623;1273;25316;-71
2023/02/18 09:27:18;;;;;;;5.30;1.60;;;;;;;6.67;100.00;98268.94;107655;1276;25335;-72
2023/02/18 09:29:45;;;;;;;5.70;1.80;;;;;;;6.67;100.00;98270.02;107519;1276;23327;-72
2023/02/18 09:32:12;;;;;;;6.40;1.80;;;;;;;6.72;100.00;98270.47;107496;1275;25340;-72
2023/02/18 09:34:52;;;;;;;8.70;2.50;;;;;;;6.74;100.00;98271.86;107562;1276;24243;-72
2023/02/18 09:37:19;;;;;;;6.00;2.10;;;;;;;6.73;100.00;98265.41;110396;1270;23217;-73
2023/02/18 09:39:47;;;;;;;7.20;2.20;;;;;;;6.75;100.00;98264.94;110321;1274;22479;-73
2023/02/18 09:42:15;;;;;;;4.70;1.90;;;;;;;6.81;100.00;98258.50;110337;1269;22535;-72
2023/02/18 09:44:47;;;;;;;5.60;1.90;;;;;;;6.81;100.00;98259.58;108558;1270;26249;-72
2023/02/18 09:47:17;;;;;;;6.90;2.00;;;;;;;6.79;100.00;98256.90;107723;1273;22524;-72
2023/02/18 09:49:47;;;;;;;5.10;1.70;;;;;;;6.82;100.00;98254.49;110341;1275;23292;-73
2023/02/18 09:52:22;;;;;;;5.50;1.50;;;;;;;6.91;100.00;98254.36;110318;1273;22488;-73
2023/02/18 09:54:49;;;;;;;5.20;1.50;;;;;;;6.91;100.00;98255.21;109400;1270;23814;-72
2023/02/18 09:57:41;;;;;;;6.70;1.90;;;;;;;6.88;100.00;98248.22;107621;1270;22559;-72
2023/02/18 10:00:20;;;;;;;5.20;1.60;;;;;;;6.83;100.00;98253.93;107559;1271;22785;-72
2023/02/18 10:03:12;;;;;;;6.70;1.80;;;;;;;6.85;100.00;98243.69;107592;1270;22559;-72
2023/02/18 10:05:47;;;;;;;8.40;1.90;;;;;;;6.80;100.00;98244.77;108464;1275;22392;-73
2023/02/18 10:08:38;;;;;;;8.70;1.60;;;;;;;6.77;100.00;98246.73;110342;1276;22399;-72
2023/02/18 10:11:12;;;;;;;7.00;1.60;;;;;;;6.81;100.00;98237.29;110241;1275;22327;-73
2023/02/18 10:13:40;;;;;;;6.10;1.30;;;;;;;6.93;100.00;98236.38;110320;1275;23292;-72
2023/02/18 10:16:06;;;;;;;7.60;1.80;;;;;;;7.03;100.00;98229.46;110320;1275;22345;-73
2023/02/18 10:18:47;;;;;;;6.40;1.70;;;;;;;7.12;100.00;98232.67;110147;1276;22397;-73
2023/02/18 10:21:17;;;;;;;5.90;1.60;;;;;;;7.19;100.00;98231.85;110326;1274;22227;-73
2023/02/18 10:24:22;;;;;;;4.00;1.30;;;;;;;7.31;100.00;98224.27;110136;1275;23491;-73
2023/02/18 10:26:54;;;;;;;6.30;1.20;;;;;;;7.43;100.00;98214.64;110316;1273;23217;-73
2023/02/18 10:29:22;;;;;;;4.50;1.50;;;;;;;7.46;100.00;98217.91;110332;1276;22449;-73
2023/02/18 10:31:56;;;;;;;7.40;1.60;;;;;;;7.50;100.00;98217.34;110291;1275;22509;-73
2023/02/18 10:34:40;;;;;;;7.40;1.90;;;;;;;7.60;100.00;98223.45;110361;1271;22424;-73
2023/02/18 10:37:28;;;;;;;6.50;1.80;;;;;;;7.68;100.00;98230.39;110317;1270;23436;-72
2023/02/18 10:40:18;;;;;;;7.00;1.60;;;;;;;7.83;100.00;98220.73;110165;1270;22326;-73
2023/02/18 10:43:07;;;;;;;7.80;1.30;;;;;;;7.80;100.00;98214.64;110208;1273;23206;-72
2023/02/18 10:45:44;;;;;;;6.40;1.40;;;;;;;7.69;100.00;98212.38;110297;1273;22229;-72
2023/02/18 10:48:11;;;;;;;4.10;1.30;;;;;;;7.60;100.00;98218.89;110347;1275;22308;-72
2023/02/18 10:50:40;;;;;;;6.40;1.60;;;;;;;7.50;100.00;98214.19;110360;1275;22306;-72
2023/02/18 10:53:11;;;;;;;7.50;1.90;;;;;;;7.44;100.00;98219.02;110290;1271;22458;-72
2023/02/18 10:55:43;;;;;;;6.40;2.00;;;;;;;7.41;100.00;98212.78;110301;1270;22922;-73
2023/02/18 10:58:27;;;;;;;6.90;1.70;;;;;;;7.44;100.00;98213.77;110172;1270;23110;-73
2023/02/18 11:00:54;;;;;;;5.70;1.60;;;;;;;7.39;100.00;98212.30;110286;1273;22442;-73
2023/02/18 11:03:25;;;;;;;6.60;1.80;;;;;;;7.34;100.00;98207.55;110168;1275;22421;-73
2023/02/18 11:05:54;;;;;;;7.70;1.70;;;;;;;7.29;100.00;98212.71;110317;1273;22570;-73
2023/02/18 11:08:24;;;;;;;6.60;1.60;;;;;;;7.26;100.00;98206.68;110156;1275;23460;-73
2023/02/18 11:10:51;;;;;;;6.80;2.00;;;;;;;7.25;100.00;98212.04;110126;1271;22950;-73
2023/02/18 11:13:29;;;;;;;7.60;1.90;;;;;;;7.25;100.00;98214.21;110088;1270;22457;-73
2023/02/18 11:16:08;;;;;;;7.80;2.10;;;;;;;7.25;100.00;98208.80;110028;1270;23136;-73
2023/02/18 11:18:39;;;;;;;6.10;1.80;;;;;;;7.23;100.00;98209.98;109895;1270;22939;-73
2023/02/18 11:21:22;;;;;;;7.00;1.70;;;;;;;7.18;100.00;98206.91;107691;1276;25220;-72
2023/02/18 11:23:50;;;;;;;7.30;2.10;;;;;;;7.14;100.00;98207.66;107682;1273;26133;-72
2023/02/18 11:26:32;;;;;;;4.00;1.40;;;;;;;7.10;100.00;98204.61;108121;1254;22525;-72
2023/02/18 11:29:02;;;;;;;5.70;1.40;;;;;;;7.11;100.00;98209.20;107643;1269;22642;-72
2023/02/18 11:31:42;;;;;;;5.60;1.70;;;;;;;7.08;100.00;98209.94;107353;1275;23252;-71
2023/02/18 11:34:14;;;;;;;7.80;1.70;;;;;;;7.08;100.00;98211.72;107716;1271;23354;-72
2023/02/18 11:36:42;;;;;;;6.30;1.60;;;;;;;7.09;100.00;98211.23;107699;1275;23874;-72
2023/02/18 11:39:13;;;;;;;9.60;2.20;;;;;;;7.09;100.00;98210.90;107547;1269;26491;-73